createdAt,value
2022-12-25T00:00:07.451Z,8.12
2022-12-25T00:00:20.884Z,8.15
2022-12-25T00:00:27.424Z,8.18
2022-12-25T00:00:37.408Z,8.28
2022-12-25T00:00:47.485Z,8.22
2022-12-25T00:00:58.307Z,8.21
2022-12-25T00:01:07.467Z,8.22
2022-12-25T00:01:17.472Z,8.03
2022-12-25T00:01:27.345Z,8.10
2022-12-25T00:01:37.342Z,8.17
2022-12-25T00:01:47.344Z,8.26
2022-12-25T00:01:58.233Z,8.07
2022-12-25T00:02:07.343Z,8.08
2022-12-25T00:02:17.389Z,8.20
2022-12-25T00:02:27.473Z,8.45
2022-12-25T00:02:37.479Z,8.21
2022-12-25T00:02:47.438Z,8.12
2022-12-25T00:02:57.435Z,8.15
2022-12-25T00:03:07.528Z,8.15
2022-12-25T00:03:17.467Z,8.18
2022-12-25T00:03:27.492Z,8.33
2022-12-25T00:03:37.543Z,8.35
2022-12-25T00:03:47.507Z,8.26
2022-12-25T00:03:57.581Z,8.14
2022-12-25T00:04:07.544Z,8.15
2022-12-25T00:04:17.326Z,8.18
2022-12-25T00:04:27.390Z,8.28
2022-12-25T00:04:37.325Z,8.28
2022-12-25T00:04:47.325Z,8.17
2022-12-25T00:04:57.321Z,8.37
2022-12-25T00:05:07.335Z,8.26
2022-12-25T00:05:17.316Z,8.22
2022-12-25T00:05:28.224Z,8.04
2022-12-25T00:05:37.331Z,8.17
2022-12-25T00:05:47.317Z,8.20
2022-12-25T00:05:57.332Z,8.25
2022-12-25T00:06:07.344Z,8.02
2022-12-25T00:06:17.328Z,8.21
2022-12-25T00:06:27.329Z,8.26
2022-12-25T00:06:38.223Z,8.21
2022-12-25T00:06:47.310Z,8.30
2022-12-25T00:06:57.308Z,8.29
2022-12-25T00:07:07.307Z,8.32
2022-12-25T00:07:17.315Z,8.25
2022-12-25T00:07:27.318Z,8.33
2022-12-25T00:07:37.309Z,8.00
2022-12-25T00:07:47.326Z,8.17
2022-12-25T00:07:57.312Z,8.15
2022-12-25T00:08:07.315Z,8.21
2022-12-25T00:08:17.402Z,8.26
2022-12-25T00:08:27.308Z,8.14
2022-12-25T00:08:37.344Z,8.18
2022-12-25T00:08:47.301Z,8.20
2022-12-25T00:08:57.316Z,8.12
2022-12-25T00:09:08.224Z,8.22
2022-12-25T00:09:17.322Z,8.20
2022-12-25T00:09:27.302Z,8.17
2022-12-25T00:09:37.319Z,8.14
2022-12-25T00:09:48.259Z,8.37
2022-12-25T00:09:57.297Z,8.17
2022-12-25T00:10:07.393Z,8.20
2022-12-25T00:10:17.301Z,8.29
2022-12-25T00:10:27.300Z,8.21
2022-12-25T00:10:43.015Z,8.28
2022-12-25T00:10:47.315Z,8.18
2022-12-25T00:10:57.306Z,8.15
2022-12-25T00:11:07.407Z,8.37
2022-12-25T00:11:17.310Z,8.30
2022-12-25T00:11:28.233Z,8.25
2022-12-25T00:11:37.308Z,8.17
2022-12-25T00:11:47.291Z,8.21
2022-12-25T00:11:58.237Z,8.21
2022-12-25T00:12:07.290Z,8.30
2022-12-25T00:12:17.300Z,8.25
2022-12-25T00:12:28.234Z,8.29
2022-12-25T00:12:37.289Z,8.14
2022-12-25T00:12:47.310Z,8.17
2022-12-25T00:12:57.298Z,8.18
2022-12-25T00:13:07.284Z,8.08
2022-12-25T00:13:17.289Z,8.17
2022-12-25T00:13:27.338Z,8.21
2022-12-25T00:13:37.293Z,8.12
2022-12-25T00:13:47.316Z,8.08
2022-12-25T00:13:57.293Z,8.21
2022-12-25T00:14:07.287Z,8.20
2022-12-25T00:14:17.295Z,8.17
2022-12-25T00:14:27.286Z,8.15
2022-12-25T00:14:37.280Z,8.17
2022-12-25T00:14:47.291Z,8.17
2022-12-25T00:14:57.292Z,8.22
2022-12-25T00:15:07.279Z,8.17
2022-12-25T00:15:17.337Z,8.28
2022-12-25T00:15:27.296Z,8.20
2022-12-25T00:15:37.276Z,8.20
2022-12-25T00:15:47.320Z,8.18
2022-12-25T00:15:57.309Z,8.18
2022-12-25T00:16:07.320Z,8.14
2022-12-25T00:16:17.326Z,8.44
2022-12-25T00:16:27.413Z,8.22
2022-12-25T00:16:38.389Z,8.14
2022-12-25T00:16:47.359Z,8.14
2022-12-25T00:16:57.278Z,8.08
2022-12-25T00:17:07.276Z,8.12
2022-12-25T00:17:17.291Z,8.07
2022-12-25T00:17:27.270Z,8.21
2022-12-25T00:17:37.300Z,8.28
2022-12-25T00:17:47.290Z,8.15
2022-12-25T00:17:57.274Z,8.11
2022-12-25T00:18:07.371Z,7.99
2022-12-25T00:18:17.290Z,8.22
2022-12-25T00:18:27.268Z,8.12
2022-12-25T00:18:37.324Z,8.22
2022-12-25T00:18:47.270Z,8.07
2022-12-25T00:18:57.339Z,8.12
2022-12-25T00:19:07.263Z,8.03
2022-12-25T00:19:17.267Z,8.20
2022-12-25T00:19:28.289Z,8.04
2022-12-25T00:19:37.338Z,8.17
2022-12-25T00:19:47.268Z,8.07
2022-12-25T00:19:57.256Z,8.08
2022-12-25T00:20:07.434Z,8.08
2022-12-25T00:20:18.542Z,8.04
2022-12-25T00:20:27.250Z,8.14
2022-12-25T00:20:37.249Z,8.08
2022-12-25T00:20:47.267Z,8.02
2022-12-25T00:20:57.245Z,8.04
2022-12-25T00:21:07.256Z,8.14
2022-12-25T00:21:17.262Z,8.12
2022-12-25T00:21:27.253Z,8.04
2022-12-25T00:21:37.339Z,8.22
2022-12-25T00:21:48.237Z,8.12
2022-12-25T00:21:57.246Z,8.18
2022-12-25T00:22:07.247Z,8.12
2022-12-25T00:22:17.317Z,8.17
2022-12-25T00:22:27.250Z,8.29
2022-12-25T00:22:37.254Z,8.12
2022-12-25T00:22:47.266Z,8.18
2022-12-25T00:22:57.254Z,8.11
2022-12-25T00:23:07.280Z,8.03
2022-12-25T00:23:17.242Z,7.97
2022-12-25T00:23:28.263Z,8.14
2022-12-25T00:23:40.285Z,8.03
2022-12-25T00:23:47.287Z,8.04
2022-12-25T00:23:57.238Z,8.03
2022-12-25T00:24:07.235Z,8.03
2022-12-25T00:24:17.240Z,8.14
2022-12-25T00:24:27.237Z,8.08
2022-12-25T00:24:37.327Z,8.15
2022-12-25T00:24:47.247Z,7.99
2022-12-25T00:24:57.269Z,7.97
2022-12-25T00:25:08.240Z,7.97
2022-12-25T00:25:17.235Z,8.08
2022-12-25T00:25:27.231Z,7.94
2022-12-25T00:25:37.235Z,8.07
2022-12-25T00:25:47.255Z,8.15
2022-12-25T00:25:57.241Z,8.07
2022-12-25T00:26:07.224Z,8.04
2022-12-25T00:26:17.263Z,8.14
2022-12-25T00:26:28.268Z,7.99
2022-12-25T00:26:37.230Z,8.18
2022-12-25T00:26:47.242Z,8.21
2022-12-25T00:26:57.241Z,8.17
2022-12-25T00:27:07.238Z,8.15
2022-12-25T00:27:17.250Z,8.20
2022-12-25T00:27:27.220Z,8.28
2022-12-25T00:27:37.223Z,8.21
2022-12-25T00:27:47.247Z,8.10
2022-12-25T00:27:57.217Z,8.12
2022-12-25T00:28:07.224Z,8.04
2022-12-25T00:28:17.231Z,8.03
2022-12-25T00:28:27.219Z,8.12
2022-12-25T00:28:37.250Z,8.17
2022-12-25T00:28:47.234Z,8.08
2022-12-25T00:28:57.269Z,8.08
2022-12-25T00:29:07.231Z,8.11
2022-12-25T00:29:17.733Z,8.21
2022-12-25T00:29:27.212Z,8.10
2022-12-25T00:29:37.225Z,8.04
2022-12-25T00:29:47.216Z,8.18
2022-12-25T00:29:57.214Z,8.12
2022-12-25T00:30:07.217Z,8.28
2022-12-25T00:30:17.217Z,8.07
2022-12-25T00:30:27.217Z,8.20
2022-12-25T00:30:37.759Z,8.12
2022-12-25T00:30:47.211Z,8.25
2022-12-25T00:30:57.309Z,8.03
2022-12-25T00:31:07.299Z,8.11
2022-12-25T00:31:17.279Z,7.89
2022-12-25T00:31:27.865Z,7.90
2022-12-25T00:31:37.295Z,8.03
2022-12-25T00:31:47.262Z,8.30
2022-12-25T00:31:57.308Z,8.04
2022-12-25T00:32:07.203Z,8.22
2022-12-25T00:32:17.219Z,8.08
2022-12-25T00:32:27.204Z,8.12
2022-12-25T00:32:37.205Z,8.08
2022-12-25T00:32:47.197Z,8.22
2022-12-25T00:32:57.734Z,8.26
2022-12-25T00:33:07.209Z,8.22
2022-12-25T00:33:17.199Z,8.14
2022-12-25T00:33:27.754Z,8.02
2022-12-25T00:33:37.214Z,8.18
2022-12-25T00:33:47.200Z,8.17
2022-12-25T00:33:57.234Z,8.17
2022-12-25T00:34:07.269Z,8.08
2022-12-25T00:34:17.199Z,8.14
2022-12-25T00:34:27.196Z,8.15
2022-12-25T00:34:37.190Z,8.20
2022-12-25T00:34:47.228Z,8.28
2022-12-25T00:34:57.192Z,8.10
2022-12-25T00:35:07.200Z,8.14
2022-12-25T00:35:17.194Z,7.94
2022-12-25T00:35:27.194Z,8.18
2022-12-25T00:35:37.244Z,8.12
2022-12-25T00:35:47.199Z,8.07
2022-12-25T00:35:57.203Z,8.08
2022-12-25T00:36:07.191Z,7.99
2022-12-25T00:36:17.268Z,8.08
2022-12-25T00:36:27.199Z,8.12
2022-12-25T00:36:41.629Z,8.26
2022-12-25T00:36:47.189Z,8.17
2022-12-25T00:36:57.186Z,8.10
2022-12-25T00:37:07.180Z,8.17
2022-12-25T00:37:17.287Z,8.14
2022-12-25T00:37:27.178Z,8.10
2022-12-25T00:37:37.725Z,7.87
2022-12-25T00:37:47.736Z,8.12
2022-12-25T00:37:57.174Z,8.00
2022-12-25T00:38:07.175Z,8.08
2022-12-25T00:38:17.216Z,8.10
2022-12-25T00:38:27.188Z,8.14
2022-12-25T00:38:37.209Z,7.94
2022-12-25T00:38:47.177Z,8.02
2022-12-25T00:38:57.197Z,8.11
2022-12-25T00:39:07.209Z,8.02
2022-12-25T00:39:17.219Z,8.04
2022-12-25T00:39:27.176Z,8.07
2022-12-25T00:39:37.189Z,7.99
2022-12-25T00:39:47.179Z,8.08
2022-12-25T00:39:57.182Z,8.11
2022-12-25T00:40:07.185Z,8.12
2022-12-25T00:40:17.176Z,8.11
2022-12-25T00:40:29.730Z,8.02
2022-12-25T00:40:37.178Z,8.14
2022-12-25T00:40:47.172Z,8.10
2022-12-25T00:40:57.283Z,8.08
2022-12-25T00:41:07.169Z,8.03
2022-12-25T00:41:17.170Z,8.14
2022-12-25T00:41:27.724Z,8.26
2022-12-25T00:41:37.167Z,8.07
2022-12-25T00:41:47.260Z,8.04
2022-12-25T00:41:57.218Z,8.18
2022-12-25T00:42:07.167Z,7.97
2022-12-25T00:42:17.160Z,8.21
2022-12-25T00:42:27.727Z,8.00
2022-12-25T00:42:37.186Z,8.07
2022-12-25T00:42:47.167Z,8.11
2022-12-25T00:42:57.204Z,8.07
2022-12-25T00:43:07.157Z,8.18
2022-12-25T00:43:17.255Z,7.96
2022-12-25T00:43:27.151Z,8.08
2022-12-25T00:43:37.155Z,8.04
2022-12-25T00:43:47.176Z,8.17
2022-12-25T00:43:57.164Z,7.97
2022-12-25T00:44:07.161Z,8.04
2022-12-25T00:44:17.161Z,7.94
2022-12-25T00:44:27.229Z,8.20
2022-12-25T00:44:37.735Z,8.12
2022-12-25T00:44:47.145Z,8.04
2022-12-25T00:44:57.168Z,7.94
2022-12-25T00:45:07.154Z,8.04
2022-12-25T00:45:17.150Z,7.96
2022-12-25T00:45:27.212Z,7.92
2022-12-25T00:45:37.228Z,7.93
2022-12-25T00:45:47.266Z,7.94
2022-12-25T00:45:57.810Z,7.94
2022-12-25T00:46:07.241Z,8.02
2022-12-25T00:46:17.264Z,8.18
2022-12-25T00:46:27.252Z,7.99
2022-12-25T00:46:37.411Z,8.02
2022-12-25T00:46:47.197Z,8.04
2022-12-25T00:46:57.246Z,8.03
2022-12-25T00:47:07.251Z,8.03
2022-12-25T00:47:17.218Z,7.97
2022-12-25T00:47:27.280Z,8.11
2022-12-25T00:47:37.140Z,8.04
2022-12-25T00:47:47.136Z,8.07
2022-12-25T00:47:57.206Z,8.12
2022-12-25T00:48:07.130Z,8.12
2022-12-25T00:48:17.167Z,8.04
2022-12-25T00:48:27.135Z,8.11
2022-12-25T00:48:37.134Z,8.00
2022-12-25T00:48:47.156Z,8.07
2022-12-25T00:48:57.165Z,8.03
2022-12-25T00:49:07.248Z,8.12
2022-12-25T00:49:17.131Z,8.02
2022-12-25T00:49:27.132Z,8.08
2022-12-25T00:49:37.285Z,8.08
2022-12-25T00:49:47.148Z,8.04
2022-12-25T00:49:57.153Z,8.03
2022-12-25T00:50:07.229Z,8.02
2022-12-25T00:50:17.723Z,7.94
2022-12-25T00:50:27.122Z,7.94
2022-12-25T00:50:37.134Z,7.92
2022-12-25T00:50:47.128Z,8.08
2022-12-25T00:50:57.172Z,8.14
2022-12-25T00:51:07.162Z,8.02
2022-12-25T00:51:17.131Z,7.94
2022-12-25T00:51:27.121Z,8.07
2022-12-25T00:51:37.754Z,8.12
2022-12-25T00:51:47.125Z,7.99
2022-12-25T00:51:57.159Z,8.08
2022-12-25T00:52:07.124Z,8.08
2022-12-25T00:52:17.125Z,7.90
2022-12-25T00:52:27.134Z,8.14
2022-12-25T00:52:37.132Z,7.96
2022-12-25T00:52:47.122Z,7.99
2022-12-25T00:52:57.778Z,8.12
2022-12-25T00:53:07.120Z,8.00
2022-12-25T00:53:17.130Z,8.07
2022-12-25T00:53:27.121Z,8.20
2022-12-25T00:53:37.168Z,8.00
2022-12-25T00:53:47.135Z,8.10
2022-12-25T00:53:57.726Z,8.15
2022-12-25T00:54:07.202Z,8.08
2022-12-25T00:54:17.137Z,8.11
2022-12-25T00:54:27.190Z,8.04
2022-12-25T00:54:37.115Z,7.93
2022-12-25T00:54:47.188Z,7.92
2022-12-25T00:54:57.148Z,7.96
2022-12-25T00:55:07.112Z,7.97
2022-12-25T00:55:17.125Z,7.93
2022-12-25T00:55:27.102Z,7.89
2022-12-25T00:55:37.103Z,7.94
2022-12-25T00:55:49.722Z,8.02
2022-12-25T00:55:57.104Z,7.79
2022-12-25T00:56:07.111Z,7.99
2022-12-25T00:56:17.107Z,7.99
2022-12-25T00:56:27.145Z,7.89
2022-12-25T00:56:37.100Z,7.90
2022-12-25T00:56:47.121Z,7.97
2022-12-25T00:56:57.102Z,8.03
2022-12-25T00:57:07.116Z,7.84
2022-12-25T00:57:17.214Z,7.82
2022-12-25T00:57:27.096Z,7.87
2022-12-25T00:57:37.096Z,8.03
2022-12-25T00:57:47.100Z,7.89
2022-12-25T00:57:57.111Z,7.92
2022-12-25T00:58:07.105Z,7.93
2022-12-25T00:58:17.112Z,7.99
2022-12-25T00:58:27.114Z,7.87
2022-12-25T00:58:37.846Z,7.81
2022-12-25T00:58:47.108Z,7.87
2022-12-25T00:58:57.144Z,7.82
2022-12-25T00:59:07.101Z,7.87
2022-12-25T00:59:17.166Z,7.90
2022-12-25T00:59:27.099Z,8.03
2022-12-25T00:59:37.092Z,7.84
2022-12-25T00:59:47.156Z,7.96
2022-12-25T00:59:57.374Z,7.90
2022-12-25T01:00:07.090Z,8.03
2022-12-25T01:00:17.085Z,7.90
2022-12-25T01:00:27.116Z,7.99
2022-12-25T01:00:37.159Z,7.89
2022-12-25T01:00:47.141Z,7.72
2022-12-25T01:00:57.286Z,7.92
2022-12-25T01:01:07.801Z,8.00
2022-12-25T01:01:17.248Z,7.87
2022-12-25T01:01:27.289Z,7.79
2022-12-25T01:01:37.175Z,7.81
2022-12-25T01:01:47.320Z,7.87
2022-12-25T01:01:57.210Z,7.84
2022-12-25T01:02:07.206Z,7.87
2022-12-25T01:02:17.226Z,7.84
2022-12-25T01:02:27.278Z,7.92
2022-12-25T01:02:37.307Z,7.87
2022-12-25T01:02:47.899Z,7.94
2022-12-25T01:02:57.285Z,7.89
2022-12-25T01:03:07.094Z,7.97
2022-12-25T01:03:17.196Z,7.97
2022-12-25T01:03:27.217Z,7.81
2022-12-25T01:03:37.111Z,7.79
2022-12-25T01:03:47.068Z,7.84
2022-12-25T01:03:57.072Z,7.75
2022-12-25T01:04:07.075Z,7.96
2022-12-25T01:04:17.144Z,7.82
2022-12-25T01:04:27.069Z,7.96
2022-12-25T01:04:37.075Z,7.89
2022-12-25T01:04:47.061Z,7.90
2022-12-25T01:04:57.151Z,7.92
2022-12-25T01:05:07.282Z,7.74
2022-12-25T01:05:17.070Z,7.96
2022-12-25T01:05:27.080Z,7.94
2022-12-25T01:05:37.735Z,7.74
2022-12-25T01:05:47.063Z,7.85
2022-12-25T01:05:57.061Z,7.94
2022-12-25T01:06:07.071Z,7.79
2022-12-25T01:06:17.119Z,7.92
2022-12-25T01:06:27.061Z,7.82
2022-12-25T01:06:37.805Z,7.74
2022-12-25T01:06:47.057Z,7.81
2022-12-25T01:06:57.105Z,7.81
2022-12-25T01:07:07.058Z,7.81
2022-12-25T01:07:17.757Z,7.84
2022-12-25T01:07:27.065Z,7.78
2022-12-25T01:07:37.162Z,7.89
2022-12-25T01:07:47.067Z,7.84
2022-12-25T01:07:57.052Z,7.85
2022-12-25T01:08:07.055Z,7.75
2022-12-25T01:08:17.060Z,7.87
2022-12-25T01:08:27.173Z,7.87
2022-12-25T01:08:37.082Z,7.90
2022-12-25T01:08:47.069Z,8.03
2022-12-25T01:08:57.044Z,8.00
2022-12-25T01:09:07.056Z,7.82
2022-12-25T01:09:17.047Z,7.81
2022-12-25T01:09:27.041Z,7.97
2022-12-25T01:09:37.052Z,7.93
2022-12-25T01:09:47.730Z,7.75
2022-12-25T01:09:57.064Z,7.93
2022-12-25T01:10:07.066Z,7.93
2022-12-25T01:10:17.122Z,7.85
2022-12-25T01:10:27.052Z,7.78
2022-12-25T01:10:37.035Z,8.03
2022-12-25T01:10:47.055Z,7.89
2022-12-25T01:10:57.059Z,8.04
2022-12-25T01:11:07.049Z,7.97
2022-12-25T01:11:17.133Z,8.02
2022-12-25T01:11:27.035Z,7.99
2022-12-25T01:11:37.039Z,7.94
2022-12-25T01:11:47.761Z,8.00
2022-12-25T01:11:57.052Z,7.99
2022-12-25T01:12:07.039Z,8.00
2022-12-25T01:12:17.042Z,7.97
2022-12-25T01:12:27.047Z,7.94
2022-12-25T01:12:37.747Z,7.92
2022-12-25T01:12:47.030Z,8.11
2022-12-25T01:12:57.046Z,8.02
2022-12-25T01:13:07.042Z,7.89
2022-12-25T01:13:17.036Z,8.07
2022-12-25T01:13:27.036Z,8.11
2022-12-25T01:13:37.081Z,7.90
2022-12-25T01:13:47.044Z,7.94
2022-12-25T01:13:57.732Z,8.02
2022-12-25T01:14:07.035Z,7.99
2022-12-25T01:14:17.018Z,8.02
2022-12-25T01:14:27.737Z,8.25
2022-12-25T01:14:37.054Z,7.93
2022-12-25T01:14:47.018Z,8.02
2022-12-25T01:14:57.053Z,7.97
2022-12-25T01:15:07.155Z,8.12
2022-12-25T01:15:17.023Z,8.17
2022-12-25T01:15:27.315Z,7.90
2022-12-25T01:15:37.057Z,8.04
2022-12-25T01:15:47.031Z,7.89
2022-12-25T01:15:57.075Z,8.17
2022-12-25T01:16:07.096Z,8.02
2022-12-25T01:16:17.849Z,8.08
2022-12-25T01:16:27.126Z,8.04
2022-12-25T01:16:37.790Z,8.03
2022-12-25T01:16:47.794Z,8.04
2022-12-25T01:16:57.151Z,8.18
2022-12-25T01:17:07.029Z,8.11
2022-12-25T01:17:17.042Z,8.25
2022-12-25T01:17:27.018Z,8.11
2022-12-25T01:17:37.024Z,8.11
2022-12-25T01:17:47.006Z,8.12
2022-12-25T01:17:57.032Z,8.12
2022-12-25T01:18:08.721Z,8.02
2022-12-25T01:18:17.044Z,8.12
2022-12-25T01:18:27.074Z,8.12
2022-12-25T01:18:37.014Z,8.07
2022-12-25T01:18:47.013Z,8.21
2022-12-25T01:18:57.739Z,8.15
2022-12-25T01:19:07.482Z,8.10
2022-12-25T01:19:17.006Z,8.10
2022-12-25T01:19:27.022Z,8.18
2022-12-25T01:19:37.078Z,8.12
2022-12-25T01:19:47.002Z,8.04
2022-12-25T01:19:57.103Z,8.10
2022-12-25T01:20:06.996Z,7.92
2022-12-25T01:20:17.757Z,7.93
2022-12-25T01:20:27.010Z,8.00
2022-12-25T01:20:37.068Z,7.99
2022-12-25T01:20:47.007Z,7.97
2022-12-25T01:20:57.755Z,7.99
2022-12-25T01:21:07.009Z,8.11
2022-12-25T01:21:16.996Z,7.92
2022-12-25T01:21:27.016Z,7.90
2022-12-25T01:21:36.997Z,7.93
2022-12-25T01:21:46.988Z,7.94
2022-12-25T01:21:57.000Z,7.93
2022-12-25T01:22:07.003Z,7.97
2022-12-25T01:22:17.092Z,7.97
2022-12-25T01:22:27.021Z,7.97
2022-12-25T01:22:36.999Z,7.84
2022-12-25T01:22:47.002Z,7.81
2022-12-25T01:22:57.006Z,7.72
2022-12-25T01:23:06.997Z,7.96
2022-12-25T01:23:16.998Z,7.89
2022-12-25T01:23:27.001Z,7.79
2022-12-25T01:23:36.986Z,7.78
2022-12-25T01:23:47.759Z,7.90
2022-12-25T01:23:56.985Z,7.84
2022-12-25T01:24:06.983Z,7.78
2022-12-25T01:24:16.983Z,7.92
2022-12-25T01:24:26.984Z,7.85
2022-12-25T01:24:37.009Z,7.71
2022-12-25T01:24:46.988Z,7.77
2022-12-25T01:24:57.015Z,7.75
2022-12-25T01:25:07.744Z,7.78
2022-12-25T01:25:16.989Z,7.96
2022-12-25T01:25:26.975Z,7.77
2022-12-25T01:25:37.024Z,7.92
2022-12-25T01:25:47.023Z,7.74
2022-12-25T01:25:56.982Z,7.78
2022-12-25T01:26:06.995Z,7.85
2022-12-25T01:26:16.970Z,7.66
2022-12-25T01:26:26.979Z,7.79
2022-12-25T01:26:37.096Z,7.69
2022-12-25T01:26:46.968Z,7.78
2022-12-25T01:26:56.964Z,7.67
2022-12-25T01:27:07.077Z,7.66
2022-12-25T01:27:16.968Z,7.60
2022-12-25T01:27:26.998Z,7.52
2022-12-25T01:27:36.976Z,7.71
2022-12-25T01:27:46.970Z,7.78
2022-12-25T01:27:57.748Z,7.66
2022-12-25T01:28:06.965Z,7.53
2022-12-25T01:28:17.034Z,7.55
2022-12-25T01:28:26.972Z,7.47
2022-12-25T01:28:37.025Z,7.55
2022-12-25T01:28:46.963Z,7.59
2022-12-25T01:28:56.975Z,7.63
2022-12-25T01:29:06.957Z,7.62
2022-12-25T01:29:17.003Z,7.49
2022-12-25T01:29:26.959Z,7.71
2022-12-25T01:29:36.959Z,7.49
2022-12-25T01:29:46.990Z,7.50
2022-12-25T01:29:56.956Z,7.55
2022-12-25T01:30:06.953Z,7.58
2022-12-25T01:30:16.996Z,7.55
2022-12-25T01:30:26.961Z,7.53
2022-12-25T01:30:36.956Z,7.58
2022-12-25T01:30:47.043Z,7.47
2022-12-25T01:30:57.000Z,7.59
2022-12-25T01:31:06.965Z,7.53
2022-12-25T01:31:17.074Z,7.71
2022-12-25T01:31:27.052Z,7.50
2022-12-25T01:31:37.030Z,7.50
2022-12-25T01:31:46.999Z,7.62
2022-12-25T01:31:57.027Z,7.50
2022-12-25T01:32:07.054Z,7.52
2022-12-25T01:32:16.956Z,7.63
2022-12-25T01:32:26.946Z,7.45
2022-12-25T01:32:37.740Z,7.37
2022-12-25T01:32:46.954Z,7.44
2022-12-25T01:32:56.942Z,7.35
2022-12-25T01:33:06.964Z,7.50
2022-12-25T01:33:16.968Z,7.44
2022-12-25T01:33:26.947Z,7.29
2022-12-25T01:33:36.955Z,7.23
2022-12-25T01:33:46.939Z,7.16
2022-12-25T01:33:56.940Z,7.41
2022-12-25T01:34:07.015Z,7.17
2022-12-25T01:34:16.947Z,7.20
2022-12-25T01:34:26.943Z,7.13
2022-12-25T01:34:36.940Z,7.15
2022-12-25T01:34:51.977Z,7.23
2022-12-25T01:34:57.013Z,7.09
2022-12-25T01:35:07.741Z,7.08
2022-12-25T01:35:16.938Z,7.05
2022-12-25T01:35:26.943Z,6.95
2022-12-25T01:35:36.948Z,7.05
2022-12-25T01:35:46.943Z,7.09
2022-12-25T01:35:56.955Z,6.95
2022-12-25T01:36:06.992Z,7.19
2022-12-25T01:36:16.964Z,7.05
2022-12-25T01:36:26.931Z,6.91
2022-12-25T01:36:36.932Z,6.86
2022-12-25T01:36:46.927Z,6.97
2022-12-25T01:36:57.018Z,6.97
2022-12-25T01:37:06.929Z,6.87
2022-12-25T01:37:16.924Z,6.83
2022-12-25T01:37:26.927Z,6.72
2022-12-25T01:37:37.750Z,6.76
2022-12-25T01:37:46.996Z,6.81
2022-12-25T01:37:56.933Z,6.66
2022-12-25T01:38:06.943Z,6.79
2022-12-25T01:38:17.744Z,6.77
2022-12-25T01:38:26.939Z,6.65
2022-12-25T01:38:36.917Z,6.59
2022-12-25T01:38:46.936Z,6.36
2022-12-25T01:38:56.914Z,6.63
2022-12-25T01:39:07.757Z,6.62
2022-12-25T01:39:16.930Z,6.56
2022-12-25T01:39:26.917Z,6.50
2022-12-25T01:39:36.947Z,6.43
2022-12-25T01:39:46.912Z,6.47
2022-12-25T01:39:56.933Z,6.51
2022-12-25T01:40:06.935Z,6.65
2022-12-25T01:40:16.919Z,6.36
2022-12-25T01:40:26.928Z,6.47
2022-12-25T01:40:36.955Z,6.38
2022-12-25T01:40:46.913Z,6.35
2022-12-25T01:40:56.922Z,6.40
2022-12-25T01:41:06.955Z,6.48
2022-12-25T01:41:17.335Z,6.40
2022-12-25T01:41:26.939Z,6.32
2022-12-25T01:41:36.997Z,6.28
2022-12-25T01:41:46.906Z,6.30
2022-12-25T01:41:56.977Z,6.16
2022-12-25T01:42:06.900Z,6.32
2022-12-25T01:42:16.899Z,6.26
2022-12-25T01:42:27.746Z,6.25
2022-12-25T01:42:36.944Z,6.26
2022-12-25T01:42:46.912Z,6.36
2022-12-25T01:42:56.904Z,6.25
2022-12-25T01:43:06.919Z,6.22
2022-12-25T01:43:18.749Z,6.14
2022-12-25T01:43:26.894Z,6.46
2022-12-25T01:43:36.914Z,6.25
2022-12-25T01:43:46.900Z,6.26
2022-12-25T01:43:56.928Z,6.09
2022-12-25T01:44:06.927Z,6.32
2022-12-25T01:44:16.909Z,6.19
2022-12-25T01:44:26.892Z,6.10
2022-12-25T01:44:36.985Z,6.18
2022-12-25T01:44:46.901Z,6.35
2022-12-25T01:44:56.971Z,6.10
2022-12-25T01:45:06.944Z,6.28
2022-12-25T01:45:16.894Z,6.11
2022-12-25T01:45:26.916Z,6.29
2022-12-25T01:45:37.018Z,6.26
2022-12-25T01:45:46.923Z,6.16
2022-12-25T01:45:56.918Z,6.26
2022-12-25T01:46:09.828Z,6.04
2022-12-25T01:46:16.991Z,6.01
2022-12-25T01:46:26.962Z,6.01
2022-12-25T01:46:36.891Z,6.16
2022-12-25T01:46:46.885Z,6.16
2022-12-25T01:46:56.882Z,6.29
2022-12-25T01:47:06.896Z,6.07
2022-12-25T01:47:16.881Z,6.21
2022-12-25T01:47:26.909Z,6.14
2022-12-25T01:47:36.893Z,6.04
2022-12-25T01:47:46.889Z,6.10
2022-12-25T01:47:56.896Z,6.21
2022-12-25T01:48:06.921Z,6.03
2022-12-25T01:48:16.887Z,6.14
2022-12-25T01:48:26.872Z,6.01
2022-12-25T01:48:36.901Z,6.10
2022-12-25T01:48:46.870Z,6.36
2022-12-25T01:48:56.950Z,5.98
2022-12-25T01:49:06.881Z,6.13
2022-12-25T01:49:16.875Z,6.03
2022-12-25T01:49:26.875Z,6.06
2022-12-25T01:49:36.935Z,6.09
2022-12-25T01:49:46.872Z,6.11
2022-12-25T01:49:56.877Z,6.14
2022-12-25T01:50:06.864Z,6.18
2022-12-25T01:50:17.774Z,6.09
2022-12-25T01:50:26.875Z,6.13
2022-12-25T01:50:36.882Z,6.00
2022-12-25T01:50:46.881Z,6.09
2022-12-25T01:50:56.897Z,6.06
2022-12-25T01:51:06.966Z,6.10
2022-12-25T01:51:16.864Z,6.09
2022-12-25T01:51:26.871Z,5.93
2022-12-25T01:51:36.950Z,6.14
2022-12-25T01:51:46.982Z,6.01
2022-12-25T01:51:56.884Z,6.25
2022-12-25T01:52:06.856Z,5.93
2022-12-25T01:52:21.742Z,5.85
2022-12-25T01:52:26.865Z,6.03
2022-12-25T01:52:36.857Z,5.96
2022-12-25T01:52:46.872Z,5.98
2022-12-25T01:52:56.936Z,5.91
2022-12-25T01:53:07.761Z,6.13
2022-12-25T01:53:16.872Z,6.04
2022-12-25T01:53:26.865Z,6.03
2022-12-25T01:53:36.860Z,5.91
2022-12-25T01:53:46.851Z,6.10
2022-12-25T01:53:56.857Z,6.00
2022-12-25T01:54:06.862Z,5.96
2022-12-25T01:54:16.864Z,5.86
2022-12-25T01:54:26.888Z,6.01
2022-12-25T01:54:36.870Z,5.96
2022-12-25T01:54:46.852Z,5.85
2022-12-25T01:54:56.854Z,5.95
2022-12-25T01:55:06.847Z,5.77
2022-12-25T01:55:16.850Z,6.03
2022-12-25T01:55:26.843Z,5.81
2022-12-25T01:55:36.850Z,5.92
2022-12-25T01:55:46.855Z,5.81
2022-12-25T01:55:56.909Z,5.92
2022-12-25T01:56:06.868Z,5.92
2022-12-25T01:56:16.840Z,5.85
2022-12-25T01:56:26.860Z,5.85
2022-12-25T01:56:36.861Z,5.75
2022-12-25T01:56:47.330Z,5.92
2022-12-25T01:56:56.847Z,5.83
2022-12-25T01:57:06.841Z,5.77
2022-12-25T01:57:17.750Z,5.85
2022-12-25T01:57:26.978Z,5.86
2022-12-25T01:57:36.847Z,5.95
2022-12-25T01:57:46.843Z,5.77
2022-12-25T01:57:56.836Z,5.92
2022-12-25T01:58:06.867Z,5.81
2022-12-25T01:58:16.830Z,5.85
2022-12-25T01:58:26.843Z,5.83
2022-12-25T01:58:36.843Z,5.88
2022-12-25T01:58:46.848Z,5.77
2022-12-25T01:58:56.836Z,5.81
2022-12-25T01:59:06.848Z,5.88
2022-12-25T01:59:16.828Z,5.81
2022-12-25T01:59:26.839Z,5.74
2022-12-25T01:59:36.994Z,5.63
2022-12-25T01:59:46.845Z,5.77
2022-12-25T01:59:56.924Z,5.91
2022-12-25T02:00:07.747Z,5.66
2022-12-25T02:00:16.843Z,5.73
2022-12-25T02:00:26.845Z,5.73
2022-12-25T02:00:36.879Z,5.81
2022-12-25T02:00:46.861Z,5.78
2022-12-25T02:00:56.900Z,5.73
2022-12-25T02:01:06.869Z,5.86
2022-12-25T02:01:17.004Z,5.78
2022-12-25T02:01:27.078Z,5.68
2022-12-25T02:01:36.919Z,5.60
2022-12-25T02:01:47.021Z,5.68
2022-12-25T02:01:57.152Z,5.78
2022-12-25T02:02:07.040Z,5.74
2022-12-25T02:02:16.934Z,5.66
2022-12-25T02:02:26.938Z,5.70
2022-12-25T02:02:37.827Z,5.74
2022-12-25T02:02:46.979Z,5.70
2022-12-25T02:02:57.003Z,5.74
2022-12-25T02:03:07.035Z,5.60
2022-12-25T02:03:16.922Z,5.59
2022-12-25T02:03:26.886Z,5.70
2022-12-25T02:03:37.784Z,5.67
2022-12-25T02:03:46.812Z,5.68
2022-12-25T02:03:56.807Z,5.52
2022-12-25T02:04:06.814Z,5.50
2022-12-25T02:04:17.755Z,5.60
2022-12-25T02:04:26.810Z,5.49
2022-12-25T02:04:36.811Z,5.45
2022-12-25T02:04:46.804Z,5.45
2022-12-25T02:04:56.826Z,5.49
2022-12-25T02:05:06.811Z,5.49
2022-12-25T02:05:16.822Z,5.48
2022-12-25T02:05:26.838Z,5.50
2022-12-25T02:05:36.813Z,5.49
2022-12-25T02:05:46.805Z,5.37
2022-12-25T02:05:56.813Z,5.45
2022-12-25T02:06:06.799Z,5.55
2022-12-25T02:06:16.803Z,5.34
2022-12-25T02:06:26.799Z,5.52
2022-12-25T02:06:36.867Z,5.49
2022-12-25T02:06:46.800Z,5.56
2022-12-25T02:06:56.800Z,5.35
2022-12-25T02:07:06.894Z,5.35
2022-12-25T02:07:16.824Z,5.22
2022-12-25T02:07:26.801Z,5.28
2022-12-25T02:07:36.798Z,5.35
2022-12-25T02:07:46.797Z,5.43
2022-12-25T02:07:56.923Z,5.38
2022-12-25T02:08:06.792Z,5.48
2022-12-25T02:08:16.802Z,5.31
2022-12-25T02:08:26.841Z,5.43
2022-12-25T02:08:37.774Z,5.34
2022-12-25T02:08:46.798Z,5.38
2022-12-25T02:08:56.798Z,5.50
2022-12-25T02:09:06.788Z,5.31
2022-12-25T02:09:16.812Z,5.31
2022-12-25T02:09:26.804Z,5.20
2022-12-25T02:09:36.791Z,5.28
2022-12-25T02:09:46.814Z,5.22
2022-12-25T02:09:56.802Z,5.30
2022-12-25T02:10:06.794Z,5.23
2022-12-25T02:10:16.823Z,5.32
2022-12-25T02:10:26.805Z,5.32
2022-12-25T02:10:36.792Z,5.41
2022-12-25T02:10:46.825Z,5.30
2022-12-25T02:10:56.786Z,5.17
2022-12-25T02:11:06.789Z,5.38
2022-12-25T02:11:17.828Z,5.27
2022-12-25T02:11:26.781Z,5.23
2022-12-25T02:11:36.784Z,5.28
2022-12-25T02:11:46.787Z,5.23
2022-12-25T02:11:56.796Z,5.16
2022-12-25T02:12:06.780Z,5.22
2022-12-25T02:12:16.927Z,5.22
2022-12-25T02:12:26.802Z,5.32
2022-12-25T02:12:36.813Z,5.30
2022-12-25T02:12:46.768Z,5.25
2022-12-25T02:12:57.793Z,5.32
2022-12-25T02:13:06.792Z,5.35